createdAt,value
2018-02-10T00:00:25.014Z,80.17
2018-02-10T00:01:24.917Z,80.26
2018-02-10T00:02:25.074Z,80.25
2018-02-10T00:03:24.969Z,80.2
2018-02-10T00:04:24.916Z,80.3
2018-02-10T00:05:25.048Z,80.38
2018-02-10T00:06:24.980Z,80.35
2018-02-10T00:07:24.972Z,80.16
2018-02-10T00:08:25.019Z,80.51
2018-02-10T00:09:25.029Z,80.49
2018-02-10T00:10:25.029Z,80.61
2018-02-10T00:11:24.993Z,80.3
2018-02-10T00:12:24.942Z,80.46
2018-02-10T00:13:24.926Z,80.51
2018-02-10T00:14:24.979Z,80.5
2018-02-10T00:15:24.963Z,80.44
2018-02-10T00:16:24.997Z,80.67
2018-02-10T00:17:24.907Z,80.68
2018-02-10T00:18:24.945Z,80.9
2018-02-10T00:19:24.976Z,80.86
2018-02-10T00:20:24.929Z,80.81
2018-02-10T00:21:24.885Z,80.97
2018-02-10T00:22:24.905Z,80.88
2018-02-10T00:23:24.976Z,80.96
2018-02-10T00:24:25.086Z,80.77
2018-02-10T00:25:24.983Z,80.68
2018-02-10T00:26:25.002Z,80.84
2018-02-10T00:27:24.904Z,81.01
2018-02-10T00:28:24.926Z,81.17
2018-02-10T00:29:24.942Z,81.09
2018-02-10T00:30:24.906Z,81.3
2018-02-10T00:31:24.891Z,81.26
2018-02-10T00:32:25.047Z,81
2018-02-10T00:33:24.993Z,81.25
2018-02-10T00:34:25.013Z,81.4
2018-02-10T00:35:24.922Z,81.2
2018-02-10T00:36:25.054Z,81.14
2018-02-10T00:37:24.966Z,81.17
2018-02-10T00:38:24.958Z,81.06
2018-02-10T00:39:25.116Z,81.16
2018-02-10T00:40:24.939Z,81.15
2018-02-10T00:41:24.924Z,81.11
2018-02-10T00:42:24.954Z,81.01
2018-02-10T00:43:25.048Z,81.2
2018-02-10T00:44:24.908Z,80.92
2018-02-10T00:45:24.972Z,81.09
2018-02-10T00:46:24.922Z,81.07
2018-02-10T00:47:25.044Z,81.16
2018-02-10T00:48:24.961Z,81.16
2018-02-10T00:49:25.005Z,81.2
2018-02-10T00:50:24.929Z,81.17
2018-02-10T00:51:25.012Z,80.85
2018-02-10T00:52:24.968Z,81.08
2018-02-10T00:53:25.010Z,81.17
2018-02-10T00:54:24.934Z,81.12
2018-02-10T00:55:25.089Z,81.2
2018-02-10T00:56:24.927Z,81.31
2018-02-10T00:57:24.931Z,81.18
2018-02-10T00:58:24.916Z,81.35
2018-02-10T00:59:25.016Z,81.25
2018-02-10T01:00:25.024Z,81.4
2018-02-10T01:01:25.063Z,81.13
2018-02-10T01:02:25.004Z,81.38
2018-02-10T01:03:24.903Z,81.35
2018-02-10T01:04:25.088Z,81.46
2018-02-10T01:05:24.991Z,81.33
2018-02-10T01:06:25.021Z,81.42
2018-02-10T01:07:24.923Z,81.38
2018-02-10T01:08:24.830Z,81.28
2018-02-10T01:09:24.740Z,81.48
2018-02-10T01:10:24.785Z,81.32
2018-02-10T01:11:25.045Z,81.28
2018-02-10T01:12:24.770Z,81.27
2018-02-10T01:13:24.777Z,81.43
2018-02-10T01:14:24.862Z,81.26
2018-02-10T01:15:24.844Z,81.15
2018-02-10T01:16:24.852Z,81.29
2018-02-10T01:17:24.869Z,81.58
2018-02-10T01:18:24.728Z,81.3
2018-02-10T01:19:24.788Z,81.34
2018-02-10T01:20:24.841Z,81.69
2018-02-10T01:21:24.850Z,81.62
2018-02-10T01:22:24.859Z,81.52
2018-02-10T01:23:24.920Z,81.64
2018-02-10T01:24:24.773Z,81.61
2018-02-10T01:25:24.824Z,81.29
2018-02-10T01:26:24.883Z,81.22
2018-02-10T01:27:24.851Z,81.38
2018-02-10T01:28:24.793Z,81.41
2018-02-10T01:29:24.782Z,81.41
2018-02-10T01:30:24.765Z,81.32
2018-02-10T01:31:24.853Z,81.61
2018-02-10T01:32:24.859Z,81.68
2018-02-10T01:33:24.769Z,81.57
2018-02-10T01:34:24.852Z,81.74
2018-02-10T01:35:24.853Z,81.71
2018-02-10T01:36:24.886Z,81.56
2018-02-10T01:37:24.749Z,81.49
2018-02-10T01:38:24.761Z,81.58
2018-02-10T01:39:25.591Z,81.66
2018-02-10T01:40:25.632Z,81.63
2018-02-10T01:41:25.549Z,81.79
2018-02-10T01:42:25.653Z,81.67
2018-02-10T01:43:25.656Z,82.34
2018-02-10T01:44:25.541Z,81.95
2018-02-10T01:45:25.620Z,82.07
2018-02-10T01:46:25.676Z,82.14
2018-02-10T01:47:25.602Z,81.96
2018-02-10T01:48:25.552Z,81.93
2018-02-10T01:49:25.656Z,82.16
2018-02-10T01:50:25.649Z,82.18
2018-02-10T01:51:25.630Z,82.11
2018-02-10T01:52:25.679Z,82.01
2018-02-10T01:53:25.671Z,81.89
2018-02-10T01:54:25.524Z,81.78
2018-02-10T01:55:25.594Z,81.83
2018-02-10T01:56:25.570Z,81.67
2018-02-10T01:57:25.580Z,81.74
2018-02-10T01:58:25.586Z,81.98
2018-02-10T01:59:25.678Z,81.81
2018-02-10T02:00:25.598Z,81.96
2018-02-10T02:01:25.621Z,81.94
2018-02-10T02:02:25.584Z,81.85
2018-02-10T02:03:25.545Z,82.02
2018-02-10T02:04:25.576Z,82.28
2018-02-10T02:05:25.744Z,82.17
2018-02-10T02:06:25.637Z,82.24
2018-02-10T02:07:25.578Z,81.99
2018-02-10T02:08:25.550Z,81.87
2018-02-10T02:09:25.265Z,82.11
2018-02-10T02:10:25.357Z,82.08
2018-02-10T02:11:25.214Z,82.12
2018-02-10T02:12:25.257Z,82.03
2018-02-10T02:13:25.275Z,81.92
2018-02-10T02:14:25.210Z,82.05
2018-02-10T02:15:25.323Z,82
2018-02-10T02:16:25.269Z,82.27
2018-02-10T02:17:25.349Z,82.41
2018-02-10T02:18:25.360Z,82.43
2018-02-10T02:19:25.239Z,82.32
2018-02-10T02:20:25.298Z,82.4
2018-02-10T02:21:25.345Z,82.37
2018-02-10T02:22:25.317Z,82.22
2018-02-10T02:23:25.334Z,82.33
2018-02-10T02:24:25.387Z,82.37
2018-02-10T02:25:25.342Z,82.21
2018-02-10T02:26:25.273Z,82.21
2018-02-10T02:27:25.327Z,81.99
2018-02-10T02:28:25.328Z,82.11
2018-02-10T02:29:25.335Z,82.12
2018-02-10T02:30:25.330Z,82.32
2018-02-10T02:31:25.297Z,82.1
2018-02-10T02:32:25.324Z,81.86
2018-02-10T02:33:25.322Z,81.87
2018-02-10T02:34:25.337Z,81.79
2018-02-10T02:35:25.323Z,81.88
2018-02-10T02:36:25.444Z,81.82
2018-02-10T02:37:25.348Z,81.87
2018-02-10T02:38:25.339Z,81.84
2018-02-10T02:39:25.254Z,81.9
2018-02-10T02:40:25.141Z,82.08
2018-02-10T02:41:25.097Z,82.21
2018-02-10T02:42:25.040Z,82.42
2018-02-10T02:43:25.232Z,82.34
2018-02-10T02:44:25.157Z,82.12
2018-02-10T02:45:25.187Z,82.21
2018-02-10T02:46:24.999Z,82.27
2018-02-10T02:47:25.121Z,82.15
2018-02-10T02:48:25.106Z,82.18
2018-02-10T02:49:25.117Z,82.05
2018-02-10T02:50:25.170Z,81.85
2018-02-10T02:51:25.166Z,81.63
2018-02-10T02:52:25.101Z,81.62
2018-02-10T02:53:25.037Z,81.66
2018-02-10T02:54:25.186Z,81.71
2018-02-10T02:55:25.131Z,81.64
2018-02-10T02:56:25.056Z,81.58
2018-02-10T02:57:25.201Z,81.73
2018-02-10T02:58:25.134Z,81.42
2018-02-10T02:59:25.137Z,81.52
2018-02-10T03:00:25.095Z,81.43
2018-02-10T03:01:25.134Z,81.52
2018-02-10T03:02:25.122Z,81.65
2018-02-10T03:03:25.155Z,81.7
2018-02-10T03:04:25.291Z,81.67
2018-02-10T03:05:25.126Z,81.61
2018-02-10T03:06:25.099Z,81.72
2018-02-10T03:07:25.133Z,81.7
2018-02-10T03:08:25.115Z,81.57
2018-02-10T03:09:25.095Z,81.8
2018-02-10T03:10:25.050Z,81.79
2018-02-10T03:11:24.875Z,81.76
2018-02-10T03:12:24.871Z,81.83
2018-02-10T03:13:24.881Z,81.87
2018-02-10T03:14:24.973Z,82.08
2018-02-10T03:15:24.966Z,82.14
2018-02-10T03:16:24.899Z,82.21
2018-02-10T03:17:24.917Z,82.13
2018-02-10T03:18:24.876Z,82.26
2018-02-10T03:19:24.931Z,82.37
2018-02-10T03:20:24.908Z,82.27
2018-02-10T03:21:24.921Z,81.96
2018-02-10T03:22:24.814Z,81.99
2018-02-10T03:23:24.896Z,81.9
2018-02-10T03:24:24.915Z,81.98
2018-02-10T03:25:24.831Z,82.04
2018-02-10T03:26:24.831Z,81.88
2018-02-10T03:27:24.849Z,82.15
2018-02-10T03:28:24.891Z,81.98
2018-02-10T03:29:24.883Z,82.25
2018-02-10T03:30:24.982Z,82.17
2018-02-10T03:31:24.901Z,82.11
2018-02-10T03:32:24.865Z,82.32
2018-02-10T03:33:24.841Z,82.22
2018-02-10T03:34:24.922Z,82.44
2018-02-10T03:35:24.938Z,82.69
2018-02-10T03:36:24.928Z,82.62
2018-02-10T03:37:24.842Z,82.49
2018-02-10T03:38:24.874Z,82.61
2018-02-10T03:39:24.911Z,82.72
2018-02-10T03:40:24.975Z,82.83
2018-02-10T03:41:24.887Z,82.81
2018-02-10T03:42:24.755Z,82.64
2018-02-10T03:43:24.771Z,82.84
2018-02-10T03:44:24.724Z,82.82
2018-02-10T03:45:24.823Z,82.71
2018-02-10T03:46:24.738Z,82.83
2018-02-10T03:47:24.745Z,82.99
2018-02-10T03:48:24.755Z,82.99
2018-02-10T03:49:24.754Z,82.91
2018-02-10T03:50:24.683Z,82.95
2018-02-10T03:51:24.976Z,82.96
2018-02-10T03:52:24.788Z,83.41
2018-02-10T03:53:24.602Z,83.12
2018-02-10T03:54:24.599Z,82.92
2018-02-10T03:55:24.791Z,82.67
2018-02-10T03:56:24.728Z,82.96
2018-02-10T03:57:24.773Z,83.18
2018-02-10T03:58:24.710Z,82.85
2018-02-10T03:59:24.725Z,83.3
2018-02-10T04:00:24.709Z,82.85
2018-02-10T04:01:24.692Z,82.83
2018-02-10T04:02:24.741Z,83.08
2018-02-10T04:03:24.777Z,83.15
2018-02-10T04:04:24.730Z,82.97
2018-02-10T04:05:24.730Z,82.64
2018-02-10T04:06:24.788Z,82.77
2018-02-10T04:07:24.746Z,82.7
2018-02-10T04:08:24.752Z,82.77
2018-02-10T04:09:24.756Z,82.53
2018-02-10T04:10:24.722Z,82.68
2018-02-10T04:11:24.721Z,82.37
2018-02-10T04:12:24.667Z,82.46
2018-02-10T04:13:25.696Z,82.26
2018-02-10T04:14:25.504Z,82.31
2018-02-10T04:15:25.558Z,82.33
2018-02-10T04:16:25.612Z,82.54
2018-02-10T04:17:25.558Z,82.61
2018-02-10T04:18:25.627Z,82.67
2018-02-10T04:19:25.550Z,82.51
2018-02-10T04:20:25.512Z,82.57
2018-02-10T04:21:25.857Z,82.7
2018-02-10T04:22:25.643Z,82.67
2018-02-10T04:23:25.599Z,82.44
2018-02-10T04:24:25.688Z,82.35
2018-02-10T04:25:25.497Z,82.68
2018-02-10T04:26:25.649Z,82.6
2018-02-10T04:27:25.578Z,82.68
2018-02-10T04:28:25.621Z,82.55
2018-02-10T04:29:25.613Z,82.56
2018-02-10T04:30:25.508Z,82.43
2018-02-10T04:31:25.533Z,82.6
2018-02-10T04:32:25.559Z,82.8
2018-02-10T04:33:25.443Z,82.64
2018-02-10T04:34:25.575Z,82.75
2018-02-10T04:35:25.601Z,82.57
2018-02-10T04:36:25.639Z,82.54
2018-02-10T04:37:25.494Z,82.6
2018-02-10T04:38:25.666Z,82.53
2018-02-10T04:39:25.622Z,82.61
2018-02-10T04:40:25.547Z,82.67
2018-02-10T04:41:25.580Z,82.48
2018-02-10T04:42:25.597Z,82.79
2018-02-10T04:43:25.408Z,82.93
2018-02-10T04:44:25.524Z,82.86
2018-02-10T04:45:25.620Z,82.87
2018-02-10T04:46:25.553Z,82.86
2018-02-10T04:47:25.572Z,82.87
2018-02-10T04:48:25.488Z,82.95
2018-02-10T04:49:25.539Z,83.03
2018-02-10T04:50:25.494Z,82.99
2018-02-10T04:51:25.505Z,83.2
2018-02-10T04:52:25.712Z,82.98
2018-02-10T04:53:25.497Z,83.17
2018-02-10T04:54:25.334Z,83.14
2018-02-10T04:55:25.536Z,83.39
2018-02-10T04:56:25.418Z,83.35
2018-02-10T04:57:25.486Z,83.32
2018-02-10T04:58:25.517Z,83.43
2018-02-10T04:59:25.528Z,83.16
2018-02-10T05:00:25.561Z,83.43
2018-02-10T05:01:25.485Z,83.1
2018-02-10T05:02:25.509Z,83.32
2018-02-10T05:03:25.466Z,83.22
2018-02-10T05:04:25.513Z,83.47
2018-02-10T05:05:25.495Z,83.5
2018-02-10T05:06:25.501Z,83.55
2018-02-10T05:07:25.530Z,83.7
2018-02-10T05:08:25.524Z,83.72
2018-02-10T05:09:25.564Z,83.65
2018-02-10T05:10:25.412Z,83.55
2018-02-10T05:11:25.495Z,83.62
2018-02-10T05:12:25.412Z,83.8
2018-02-10T05:13:25.506Z,83.64
2018-02-10T05:14:25.444Z,83.89
2018-02-10T05:15:25.489Z,83.96
2018-02-10T05:16:25.496Z,83.76
2018-02-10T05:17:25.442Z,83.78
2018-02-10T05:18:25.390Z,83.71
2018-02-10T05:19:25.422Z,83.86
2018-02-10T05:20:25.287Z,83.95
2018-02-10T05:21:25.398Z,83.95
2018-02-10T05:22:25.415Z,83.77
2018-02-10T05:23:25.411Z,84.07
2018-02-10T05:24:25.437Z,84.05
2018-02-10T05:25:25.445Z,83.96
2018-02-10T05:26:25.332Z,84.01
2018-02-10T05:27:25.303Z,83.67
2018-02-10T05:28:25.460Z,83.98
2018-02-10T05:29:25.420Z,84.17
2018-02-10T05:30:25.384Z,84.07
2018-02-10T05:31:25.434Z,84.28
2018-02-10T05:32:25.423Z,84.17
2018-02-10T05:33:25.418Z,84.32
2018-02-10T05:34:25.425Z,84.56
2018-02-10T05:35:25.371Z,84.64
2018-02-10T05:36:25.337Z,84.48
2018-02-10T05:37:25.484Z,84.31
2018-02-10T05:38:25.388Z,84.42
2018-02-10T05:39:25.318Z,84.5
2018-02-10T05:40:25.335Z,84.54
2018-02-10T05:41:25.309Z,84.19
2018-02-10T05:42:25.372Z,84.7
2018-02-10T05:43:25.432Z,84.72
2018-02-10T05:44:25.435Z,85.06
2018-02-10T05:45:25.138Z,85.08
2018-02-10T05:46:25.203Z,84.89
2018-02-10T05:47:25.270Z,84.89
2018-02-10T05:48:25.258Z,84.56
2018-02-10T05:49:25.275Z,84.87
2018-02-10T05:50:25.156Z,84.34
2018-02-10T05:51:25.290Z,84.51
2018-02-10T05:52:25.302Z,84.34
2018-02-10T05:53:25.199Z,84.62
2018-02-10T05:54:25.195Z,84.68
2018-02-10T05:55:25.180Z,84.68
2018-02-10T05:56:25.206Z,84.65
2018-02-10T05:57:25.266Z,84.93
2018-02-10T05:58:25.460Z,84.74
2018-02-10T05:59:25.251Z,84.79
2018-02-10T06:00:25.144Z,84.69
2018-02-10T06:01:25.206Z,84.77
2018-02-10T06:02:25.218Z,84.68
2018-02-10T06:03:25.241Z,84.6
2018-02-10T06:04:25.221Z,84.42
2018-02-10T06:05:25.308Z,85.3
2018-02-10T06:06:25.268Z,84.86
2018-02-10T06:07:25.213Z,85.08
2018-02-10T06:08:25.221Z,84.95
2018-02-10T06:09:25.208Z,84.82
2018-02-10T06:10:25.157Z,84.95
2018-02-10T06:11:25.205Z,84.8
2018-02-10T06:12:25.216Z,84.94
2018-02-10T06:13:25.289Z,84.82
2018-02-10T06:14:25.250Z,84.9
2018-02-10T06:15:25.317Z,84.85
2018-02-10T06:16:25.207Z,84.97
2018-02-10T06:17:25.139Z,85.08
2018-02-10T06:18:25.214Z,84.91
2018-02-10T06:19:25.210Z,84.78
2018-02-10T06:20:25.171Z,84.58
2018-02-10T06:21:25.223Z,84.84
2018-02-10T06:22:25.183Z,84.93
2018-02-10T06:23:25.168Z,85.29
2018-02-10T06:24:25.221Z,84.93
2018-02-10T06:25:25.273Z,85.14
2018-02-10T06:26:25.236Z,85.06
2018-02-10T06:27:25.204Z,84.9
2018-02-10T06:28:25.116Z,84.93
2018-02-10T06:29:25.139Z,85.25
2018-02-10T06:30:25.136Z,85.2
2018-02-10T06:31:25.110Z,85.04
2018-02-10T06:32:25.142Z,85.2
2018-02-10T06:33:25.158Z,85.01
2018-02-10T06:34:25.177Z,84.87
2018-02-10T06:35:25.114Z,85.14
2018-02-10T06:36:25.132Z,85.16
2018-02-10T06:37:25.151Z,85.25
2018-02-10T06:38:25.170Z,85.33
2018-02-10T06:39:25.221Z,85.24
2018-02-10T06:40:25.180Z,85
2018-02-10T06:41:25.211Z,84.71
2018-02-10T06:42:25.196Z,85.18
2018-02-10T06:43:25.192Z,84.91
2018-02-10T06:44:25.204Z,85.08
2018-02-10T06:45:25.174Z,85.11
2018-02-10T06:46:25.086Z,85.07
2018-02-10T06:47:24.868Z,84.99
2018-02-10T06:48:24.851Z,85.18
2018-02-10T06:49:24.800Z,85.17
2018-02-10T06:50:24.797Z,85.11
2018-02-10T06:51:24.854Z,84.76
2018-02-10T06:52:24.893Z,84.93
2018-02-10T06:53:24.877Z,85.13
2018-02-10T06:54:24.875Z,85.04
2018-02-10T06:55:24.971Z,85.05
2018-02-10T06:58:27.932Z,84.99
2018-02-10T06:59:24.950Z,85.12
2018-02-10T07:00:24.829Z,85.17
2018-02-10T07:01:24.837Z,85.16
2018-02-10T07:02:24.889Z,85.14
2018-02-10T07:03:24.864Z,85.24
2018-02-10T07:04:24.926Z,85.06
2018-02-10T07:05:24.985Z,85.15
2018-02-10T07:06:24.884Z,85.15
2018-02-10T07:07:24.996Z,85.15
2018-02-10T07:08:24.913Z,85.18
2018-02-10T07:09:24.922Z,85.02
2018-02-10T07:10:24.942Z,85.01
2018-02-10T07:11:24.921Z,84.94
2018-02-10T07:12:24.978Z,85.09
2018-02-10T07:13:25.680Z,84.87
2018-02-10T07:14:24.942Z,84.76
2018-02-10T07:15:24.938Z,84.91
2018-02-10T07:16:24.843Z,84.96
2018-02-10T07:17:24.974Z,85.03
2018-02-10T07:18:24.900Z,85.29
2018-02-10T07:19:24.944Z,85
2018-02-10T07:20:24.893Z,85.22
2018-02-10T07:21:24.830Z,85.29
2018-02-10T07:22:24.921Z,85.14
2018-02-10T07:23:24.784Z,85.11
2018-02-10T07:24:24.862Z,85.3
2018-02-10T07:25:24.824Z,85.45
2018-02-10T07:26:24.880Z,85.35
2018-02-10T07:27:24.928Z,85.43
2018-02-10T07:28:24.928Z,85.48
2018-02-10T07:31:25.246Z,85.27
2018-02-10T07:32:24.836Z,85.46
2018-02-10T07:33:24.812Z,86.07
2018-02-10T07:34:24.831Z,86.17
2018-02-10T07:35:24.917Z,85.6
2018-02-10T07:36:24.889Z,85.79
2018-02-10T07:37:24.896Z,85.76
2018-02-10T07:38:24.902Z,85.9
2018-02-10T07:39:24.935Z,85.83
2018-02-10T07:40:24.901Z,85.68
2018-02-10T07:41:24.849Z,85.64
2018-02-10T07:42:24.882Z,85.59
2018-02-10T07:43:24.861Z,85.78
2018-02-10T07:44:24.944Z,85.61
2018-02-10T07:45:24.950Z,85.49
2018-02-10T07:46:24.926Z,85.47
2018-02-10T07:47:24.863Z,85.51
2018-02-10T07:48:24.820Z,85.5
2018-02-10T07:49:24.626Z,85.37
2018-02-10T07:50:24.687Z,85.58
2018-02-10T07:51:24.606Z,85.38
2018-02-10T07:52:24.632Z,85.29
2018-02-10T07:53:24.631Z,85.11
2018-02-10T07:54:24.640Z,85.34
2018-02-10T07:55:24.784Z,85.23
2018-02-10T07:56:24.654Z,85.34
2018-02-10T07:57:24.846Z,85.39
2018-02-10T07:58:24.734Z,85.05
2018-02-10T07:59:24.639Z,84.98
2018-02-10T08:00:24.938Z,85.07
2018-02-10T08:01:28.770Z,85.06
2018-02-10T08:02:24.642Z,84.96
2018-02-10T08:03:24.690Z,84.76
2018-02-10T08:04:24.717Z,85.04
2018-02-10T08:05:24.641Z,84.97
2018-02-10T08:06:24.653Z,84.98
2018-02-10T08:07:24.746Z,84.96
2018-02-10T08:08:24.701Z,84.91
2018-02-10T08:09:24.625Z,84.76
2018-02-10T08:10:24.699Z,84.79
2018-02-10T08:11:24.690Z,84.64
2018-02-10T08:12:24.712Z,84.63
2018-02-10T08:13:24.654Z,84.79
2018-02-10T08:14:24.642Z,84.26
2018-02-10T08:15:24.673Z,84.36
2018-02-10T08:16:24.615Z,84.54
2018-02-10T08:17:24.851Z,84.51
2018-02-10T08:18:24.809Z,84.62
2018-02-10T08:19:24.675Z,84.44
2018-02-10T08:20:25.740Z,84.56
2018-02-10T08:21:25.638Z,84.68
2018-02-10T08:22:25.638Z,84.5
2018-02-10T08:23:25.657Z,84.43
2018-02-10T08:24:25.718Z,84.47
2018-02-10T08:25:25.708Z,85.04
2018-02-10T08:26:25.598Z,85.07
2018-02-10T08:27:25.641Z,84.92
2018-02-10T08:28:25.699Z,84.73
2018-02-10T08:29:25.593Z,84.96
2018-02-10T08:30:25.673Z,85.09
2018-02-10T08:31:25.505Z,85.04
2018-02-10T08:32:25.595Z,84.99
2018-02-10T08:33:25.590Z,85.04
2018-02-10T08:34:25.519Z,84.96
2018-02-10T08:35:25.634Z,85.15
2018-02-10T08:36:25.620Z,85.09
2018-02-10T08:37:25.603Z,85.25
2018-02-10T08:38:25.543Z,84.85
2018-02-10T08:39:25.564Z,84.86
2018-02-10T08:40:25.596Z,84.93
2018-02-10T08:41:25.630Z,85.1
2018-02-10T08:42:25.677Z,85.15
2018-02-10T08:43:25.726Z,85.17
2018-02-10T08:44:25.528Z,85.33
2018-02-10T08:45:25.640Z,85.25
2018-02-10T08:46:25.529Z,85.4
2018-02-10T08:47:25.577Z,85.32
2018-02-10T08:48:25.608Z,85.32
2018-02-10T08:49:25.580Z,84.99
2018-02-10T08:50:25.365Z,85.11
2018-02-10T08:51:25.533Z,85.03
2018-02-10T08:52:25.450Z,84.88
2018-02-10T08:53:25.507Z,84.69
2018-02-10T08:54:25.490Z,84.33
2018-02-10T08:55:25.438Z,84.74
2018-02-10T08:56:25.544Z,84.89
2018-02-10T08:57:25.381Z,84.71
2018-02-10T08:58:29.455Z,84.72
2018-02-10T08:59:25.782Z,84.73
2018-02-10T09:00:25.411Z,84.43
2018-02-10T09:01:25.523Z,84.64
2018-02-10T09:02:25.534Z,84.59
2018-02-10T09:03:25.525Z,84.62
2018-02-10T09:04:25.583Z,84.24
2018-02-10T09:05:25.382Z,84.17
2018-02-10T09:06:25.400Z,83.96
2018-02-10T09:07:25.463Z,83.86
2018-02-10T09:08:25.451Z,83.82
2018-02-10T09:09:25.397Z,83.93
2018-02-10T09:10:25.706Z,83.59
2018-02-10T09:11:25.539Z,83.52
2018-02-10T09:12:25.361Z,83.36
2018-02-10T09:13:25.407Z,83.59
2018-02-10T09:14:25.502Z,83.76
2018-02-10T09:15:25.474Z,83.74
2018-02-10T09:16:25.416Z,83.85
2018-02-10T09:17:25.477Z,83.7
2018-02-10T09:18:25.477Z,83.67
2018-02-10T09:19:25.419Z,83.48
2018-02-10T09:20:25.425Z,83.31
2018-02-10T09:21:25.380Z,83.32
2018-02-10T09:22:25.283Z,83.2
2018-02-10T09:23:25.303Z,83.24
2018-02-10T09:24:25.219Z,83.3
2018-02-10T09:25:25.361Z,83.3
2018-02-10T09:26:25.352Z,83.42
2018-02-10T09:27:25.235Z,83.22
2018-02-10T09:28:25.336Z,83.25
2018-02-10T09:29:25.348Z,83.12
2018-02-10T09:30:25.394Z,83.21
2018-02-10T09:31:25.358Z,82.71
2018-02-10T09:32:25.376Z,82.35
2018-02-10T09:33:25.348Z,82.25
2018-02-10T09:34:25.348Z,82.32
2018-02-10T09:35:25.252Z,82.37
2018-02-10T09:36:25.269Z,82.13
2018-02-10T09:37:25.296Z,82.16
2018-02-10T09:38:25.251Z,82.18
2018-02-10T09:39:25.401Z,82.04
2018-02-10T09:40:25.173Z,81.72
2018-02-10T09:41:25.224Z,81.75
2018-02-10T09:42:25.292Z,81.41
2018-02-10T09:43:25.283Z,81.23
2018-02-10T09:44:25.378Z,81.33
2018-02-10T09:45:25.394Z,81.42
2018-02-10T09:46:25.239Z,81.25
2018-02-10T09:47:25.402Z,81.54
2018-02-10T09:48:25.326Z,81.53
2018-02-10T09:49:25.282Z,81.72
2018-02-10T09:50:25.453Z,81.87
2018-02-10T09:51:25.476Z,81.76
2018-02-10T09:52:25.449Z,81.53
2018-02-10T09:53:25.500Z,81.51
2018-02-10T09:54:26.053Z,81.48
2018-02-10T09:55:25.450Z,81.34
2018-02-10T09:56:25.634Z,81.3
2018-02-10T09:57:25.452Z,81.47
2018-02-10T09:58:25.389Z,81.61
2018-02-10T09:59:25.383Z,81.58
2018-02-10T10:00:25.363Z,81.42
2018-02-10T10:01:25.404Z,81.43
2018-02-10T10:02:25.437Z,81.5
2018-02-10T10:03:25.411Z,81
2018-02-10T10:04:25.463Z,81.03
2018-02-10T10:05:25.425Z,81.44
2018-02-10T10:06:25.385Z,81.4
2018-02-10T10:07:25.406Z,81.3
2018-02-10T10:08:25.443Z,81.4
2018-02-10T10:09:25.442Z,81.4
2018-02-10T10:10:25.380Z,81.25
2018-02-10T10:11:25.687Z,81.32
2018-02-10T10:12:25.465Z,81.15
2018-02-10T10:13:25.465Z,81.46
2018-02-10T10:14:25.487Z,81.38
2018-02-10T10:15:25.493Z,81.47
2018-02-10T10:16:25.407Z,81.49
2018-02-10T10:17:25.475Z,81.54
2018-02-10T10:18:25.424Z,81.57
2018-02-10T10:19:25.420Z,81.56
2018-02-10T10:20:25.407Z,81.65
2018-02-10T10:21:25.487Z,81.69
2018-02-10T10:22:25.336Z,81.58
2018-02-10T10:23:25.987Z,81.29
2018-02-10T10:24:25.423Z,81.28
2018-02-10T10:25:25.448Z,81.19
2018-02-10T10:26:25.422Z,81.39
2018-02-10T10:27:25.737Z,81.44
2018-02-10T10:28:25.456Z,81.42
2018-02-10T10:29:25.441Z,81.44
2018-02-10T10:30:25.447Z,81.42
2018-02-10T10:31:25.337Z,81.46
2018-02-10T10:32:25.509Z,81.18
2018-02-10T10:33:25.776Z,81.25
2018-02-10T10:34:25.307Z,81.29
2018-02-10T10:35:25.355Z,81.18
2018-02-10T10:36:25.308Z,81.08
2018-02-10T10:37:25.452Z,81.12
2018-02-10T10:38:25.592Z,80.98
2018-02-10T10:39:25.426Z,80.81
2018-02-10T10:40:25.450Z,81.07
2018-02-10T10:41:25.493Z,81.06
2018-02-10T10:42:25.529Z,81.2
2018-02-10T10:43:25.428Z,81.37
2018-02-10T10:44:25.444Z,81.4
2018-02-10T10:45:25.706Z,81.38
2018-02-10T10:46:25.472Z,81.35
2018-02-10T10:47:25.336Z,81.42
2018-02-10T10:48:25.340Z,81.45
2018-02-10T10:49:25.411Z,81.33
2018-02-10T10:50:25.346Z,81.26
2018-02-10T10:51:25.298Z,81.28
2018-02-10T10:52:25.337Z,81.19
2018-02-10T10:53:25.233Z,81.2
2018-02-10T10:54:25.306Z,81.18
2018-02-10T10:55:25.886Z,81.19
2018-02-10T10:56:25.267Z,81.08
2018-02-10T10:57:25.291Z,81.02
2018-02-10T10:58:31.290Z,81.16
2018-02-10T10:59:27.338Z,80.94
2018-02-10T11:00:26.500Z,80.96
2018-02-10T11:01:25.249Z,81.28
2018-02-10T11:02:25.315Z,81.18
2018-02-10T11:03:25.217Z,81.24
2018-02-10T11:04:25.320Z,81.24
2018-02-10T11:05:25.336Z,81.19
2018-02-10T11:06:25.386Z,81.22
2018-02-10T11:07:25.245Z,81.34
2018-02-10T11:08:26.393Z,81.39
2018-02-10T11:09:25.363Z,81.45
2018-02-10T11:10:25.253Z,81.57
2018-02-10T11:11:25.360Z,81.63
2018-02-10T11:12:25.342Z,81.55
2018-02-10T11:13:25.995Z,81.52
2018-02-10T11:14:25.299Z,81.53
2018-02-10T11:15:25.316Z,81.5
2018-02-10T11:16:25.473Z,81.5
2018-02-10T11:17:25.409Z,81.52
2018-02-10T11:18:25.231Z,81.49
2018-02-10T11:19:25.239Z,81.46
2018-02-10T11:20:25.260Z,81.25
2018-02-10T11:21:25.231Z,81.52
2018-02-10T11:22:25.250Z,81.64
2018-02-10T11:23:24.849Z,81.62
2018-02-10T11:24:24.779Z,81.73
2018-02-10T11:25:24.881Z,81.64
2018-02-10T11:26:24.876Z,81.56
2018-02-10T11:27:24.860Z,81.6
2018-02-10T11:28:24.916Z,81.61
2018-02-10T11:29:24.878Z,81.75
2018-02-10T11:30:27.047Z,81.85
2018-02-10T11:31:25.351Z,81.89
2018-02-10T11:32:24.990Z,81.96
2018-02-10T11:33:25.262Z,81.91
2018-02-10T11:34:24.868Z,81.76
2018-02-10T11:35:24.899Z,81.62
2018-02-10T11:36:25.060Z,81.76
2018-02-10T11:37:25.150Z,81.49
2018-02-10T11:38:25.051Z,81.55
2018-02-10T11:39:24.811Z,81.52
2018-02-10T11:40:24.773Z,81.53
2018-02-10T11:41:24.955Z,81.57
2018-02-10T11:42:24.788Z,81.73
2018-02-10T11:43:24.941Z,81.51
2018-02-10T11:44:24.829Z,81.66
2018-02-10T11:45:24.764Z,81.47
2018-02-10T11:46:34.817Z,81.56
2018-02-10T11:47:24.910Z,81.58
2018-02-10T11:48:24.815Z,81.01
2018-02-10T11:49:24.877Z,81
2018-02-10T11:50:24.922Z,81.19
2018-02-10T11:51:24.938Z,81.35
2018-02-10T11:52:24.898Z,81.23
2018-02-10T11:53:24.835Z,80.82
2018-02-10T11:54:24.786Z,80.96
2018-02-10T11:55:24.807Z,81.02
2018-02-10T11:56:24.942Z,81.29
2018-02-10T11:57:24.959Z,81.31
2018-02-10T11:58:24.723Z,81.21
2018-02-10T11:59:24.925Z,81.33
2018-02-10T12:00:24.652Z,81.3
2018-02-10T12:01:24.736Z,81.01
2018-02-10T12:02:24.791Z,81.31
2018-02-10T12:03:24.750Z,81.41
2018-02-10T12:04:25.430Z,81.31
2018-02-10T12:05:24.683Z,81.15
2018-02-10T12:06:24.773Z,81.14
2018-02-10T12:07:24.835Z,80.82
2018-02-10T12:08:24.703Z,80.94
2018-02-10T12:09:24.654Z,80.85
2018-02-10T12:10:24.719Z,80.98
2018-02-10T12:11:24.765Z,81.07
2018-02-10T12:12:24.743Z,81.08
2018-02-10T12:13:24.839Z,81.14
2018-02-10T12:14:24.814Z,81.04
2018-02-10T12:15:24.810Z,81.14
2018-02-10T12:16:24.727Z,81.15
2018-02-10T12:17:24.810Z,81.05
2018-02-10T12:18:24.807Z,81.16
2018-02-10T12:19:24.804Z,81.02
2018-02-10T12:20:24.966Z,81.09
2018-02-10T12:21:25.988Z,80.75
2018-02-10T12:22:24.831Z,80.87
2018-02-10T12:23:24.835Z,80.94
2018-02-10T12:24:24.757Z,80.91
2018-02-10T12:25:24.749Z,80.89
2018-02-10T12:26:24.853Z,80.94
2018-02-10T12:27:24.745Z,81.02
2018-02-10T12:28:24.788Z,81.15
2018-02-10T12:29:24.903Z,81.16
2018-02-10T12:30:24.789Z,81.22
2018-02-10T12:31:24.657Z,81.13
2018-02-10T12:32:25.485Z,81.06
2018-02-10T12:33:24.864Z,81.08
2018-02-10T12:34:24.713Z,80.9
2018-02-10T12:35:24.730Z,80.75
2018-02-10T12:36:24.781Z,80.85
2018-02-10T12:37:24.645Z,80.94
2018-02-10T12:38:24.719Z,80.55
2018-02-10T12:39:24.724Z,80.51
2018-02-10T12:40:24.830Z,80.49
2018-02-10T12:41:24.740Z,80.47
2018-02-10T12:42:24.780Z,80.43
2018-02-10T12:43:24.698Z,80.49
2018-02-10T12:44:24.773Z,80.28
2018-02-10T12:45:24.711Z,80.3
2018-02-10T12:46:24.898Z,80.55
2018-02-10T12:47:24.930Z,80.46
2018-02-10T12:48:24.730Z,80.22
2018-02-10T12:49:24.669Z,79.76
2018-02-10T12:50:24.724Z,79.78
2018-02-10T12:51:24.776Z,79.61
2018-02-10T12:52:25.786Z,79.49
2018-02-10T12:53:24.770Z,79.77
2018-02-10T12:54:24.701Z,79.84
2018-02-10T12:55:25.244Z,79.89
2018-02-10T12:56:25.232Z,79.74
2018-02-10T12:57:25.217Z,79.71
2018-02-10T12:58:25.211Z,79.79
2018-02-10T12:59:25.360Z,79.66